Bahrain International Airport
OBBI : now visible

Airfield :











YOU CAN JOIN US ON...

 
LOGIN :

Register | Disclaimer

   EN    FR    IT 

 









Legend :    VFR   Marginal VFR   IFR   Intensive IFR   Very Intensive IFR
Visi :
Ceiling :
>= 8 km
>= 3000ft
5 to 8 km
1000 to 3000 ft
1500m to 5 km
500 to 1000 ft
800 to 1500m
200 to 500 ft
< 800m
< 200 ft
Symbols :   Thunderstorms  Fog  Heavy snow  Heavy precipitations  Wind > 20 kt






- Airport Elevation : 6 ft
- IATA code : BAH


OBBI - Bahrain International

CURRENT METAR :
  • 261100Z 33018KT 4000 DU SKC 21/10 Q1016 TEMPO 2500

EXPIRED METARs :
  • 261030Z 34018KT 4000 DU SKC 21/10 Q1016 TEMPO 2500
  • 261000Z 33017KT 4000 BLDU NSC 20/09 Q1017 TEMPO 2500
  • 260930Z 33020KT 3500 BLDU NSC 21/09 Q1017 TEMPO 2500
  • 260900Z 31027KT 4000 BLDU NSC 21/09 Q1017 TEMPO 2500
  • 260830Z 32023KT 9000 NSC 21/08 Q1017 NOSIG

TAF TAF OBBI
Valid from the 26 at 06:00 until the 27 at 12:00 UTC


260500Z 2606/2712 33020G30KT 6000 DU FEW020 SCT100
TEMPO 2606/2612 3000
PROB30
TEMPO 2606/2609 1000 VV///
BECMG 2609/2612 35015KT



MET'MAP, your aeronautical weather chart ! - Copyright ORBIFLY December 2007 - Disclaimer

ORBIFLY MET'MAP TEAM :

Programming & Development : Alexandra Zaïnal
Concept & original design : Baudouin d'Aumeries
Assistance for programming : Marc-Olivier Méhu
Technical & hardware support : Manuel Goepfert

Contact : metmap@orbifly.com




SOURCES & CREDITS :

   NOAA       Earth
Advisory